Time;durP1;ratioP1;P1;durP2;ratioP2;P2;SDS_P1;SDS_P2;PMS_P1;PMS_P2;Temp;Humidity;BMP_temperature;BMP_pressure;BME280_temperature;BME280_humidity;BME280_pressure;Samples;Min_cycle;Max_cycle;Signal;HPM_P1;HPM_P2
2023/01/02 00:01:48;;;;;;;;;;;;;;;17.91;53.15;100059.47;4975028;28;6976;-73
2023/01/02 00:04:13;;;;;;;;;;;;;;;17.86;53.07;100050.75;4958024;28;6788;-73
2023/01/02 00:06:39;;;;;;;;;;;;;;;17.76;53.21;100046.31;4961406;28;6961;-73
2023/01/02 00:09:07;;;;;;;;;;;;;;;17.68;53.72;100042.78;4960480;28;6792;-73
2023/01/02 00:11:33;;;;;;;;;;;;;;;17.55;54.41;100042.59;4958825;28;6792;-73
2023/01/02 00:13:59;;;;;;;;;;;;;;;17.46;54.73;100045.03;4949592;28;6776;-73
2023/01/02 00:16:25;;;;;;;;;;;;;;;17.41;54.75;100049.31;4954228;28;6906;-73
2023/01/02 00:18:51;;;;;;;;;;;;;;;17.37;54.80;100034.56;4979525;28;7212;-73
2023/01/02 00:21:17;;;;;;;;;;;;;;;17.30;55.40;100041.38;4985923;28;7245;-72
2023/01/02 00:23:43;;;;;;;;;;;;;;;17.28;55.80;100041.34;4977380;28;6982;-73
2023/01/02 00:26:09;;;;;;;;;;;;;;;17.22;55.74;100049.03;4977643;28;6776;-73
2023/01/02 00:28:36;;;;;;;;;;;;;;;17.18;56.07;100042.94;4961301;28;6833;-73
2023/01/02 00:31:11;;;;;;;;;;;;;;;17.15;56.01;100049.78;4960158;28;7010;-73
2023/01/02 00:33:36;;;;;;;;;;;;;;;17.08;56.22;100052.28;4975569;28;6976;-73
2023/01/02 00:36:08;;;;;;;;;;;;;;;17.06;56.56;100046.19;4988168;28;6783;-73
2023/01/02 00:38:34;;;;;;;;;;;;;;;17.05;56.52;100051.38;4965549;28;7298;-72
2023/01/02 00:40:59;;;;;;;;;;;;;;;17.05;56.03;100054.81;4974421;28;7369;-73
2023/01/02 00:43:27;;;;;;;;;;;;;;;17.02;56.33;100049.59;4958259;28;7054;-72
2023/01/02 00:45:53;;;;;;;;;;;;;;;17.00;56.66;100050.38;4959389;28;7213;-72
2023/01/02 00:48:18;;;;;;;;;;;;;;;16.98;56.32;100052.94;4963584;28;7035;-73
2023/01/02 00:50:44;;;;;;;;;;;;;;;16.95;56.42;100045.13;4984819;28;6776;-73
2023/01/02 00:53:11;;;;;;;;;;;;;;;16.93;56.27;100047.69;4989439;28;7306;-73
2023/01/02 00:55:36;;;;;;;;;;;;;;;16.90;56.39;100041.59;4974703;28;6792;-73
2023/01/02 00:58:02;;;;;;;;;;;;;;;16.88;57.02;100053.63;4978253;28;7072;-73
2023/01/02 01:00:28;;;;;;;;;;;;;;;16.91;56.93;100058.88;4946113;28;7296;-73
2023/01/02 01:02:55;;;;;;;;;;;;;;;16.99;56.74;100062.44;4988478;28;6959;-73
2023/01/02 01:05:22;;;;;;;;;;;;;;;17.07;56.30;100040.19;4959262;28;7286;-73
2023/01/02 01:07:48;;;;;;;;;;;;;;;17.13;55.95;100038.53;4956387;28;6784;-73
2023/01/02 01:10:13;;;;;;;;;;;;;;;17.15;56.09;100027.38;4975768;28;6958;-73
2023/01/02 01:12:39;;;;;;;;;;;;;;;17.17;56.04;100037.72;4954659;28;7010;-73
2023/01/02 01:15:06;;;;;;;;;;;;;;;17.18;56.16;100023.94;4956365;28;8336;-73
2023/01/02 01:17:32;;;;;;;;;;;;;;;17.21;55.96;100011.91;4957318;28;7099;-73
2023/01/02 01:19:58;;;;;;;;;;;;;;;17.19;55.92;100015.31;4960308;28;6772;-73
2023/01/02 01:22:23;;;;;;;;;;;;;;;17.15;55.77;100022.19;4985426;28;6840;-73
2023/01/02 01:24:49;;;;;;;;;;;;;;;17.10;55.88;100017.78;4974523;28;7028;-73
2023/01/02 01:27:15;;;;;;;;;;;;;;;17.05;55.79;100025.50;4954928;28;6768;-72
2023/01/02 01:29:40;;;;;;;;;;;;;;;16.99;56.43;100026.19;4957449;28;7363;-73
2023/01/02 01:32:06;;;;;;;;;;;;;;;16.96;56.60;100027.91;4934636;28;6945;-72
2023/01/02 01:34:32;;;;;;;;;;;;;;;16.95;56.38;100034.78;4974193;28;7188;-73
2023/01/02 01:36:57;;;;;;;;;;;;;;;16.93;56.16;100015.78;4954664;28;6856;-73
2023/01/02 01:39:23;;;;;;;;;;;;;;;16.89;56.53;100026.91;4970507;28;7238;-73
2023/01/02 01:41:49;;;;;;;;;;;;;;;16.85;56.79;100035.47;4973831;28;6955;-73
2023/01/02 01:44:43;;;;;;;;;;;;;;;16.84;57.04;100031.16;4963982;28;6867;-73
2023/01/02 01:47:44;;;;;;;;;;;;;;;16.88;56.48;100049.34;4952045;28;6784;-73
2023/01/02 01:50:31;;;;;;;;;;;;;;;16.90;56.81;100039.00;4950718;28;7132;-73
2023/01/02 01:53:10;;;;;;;;;;;;;;;16.90;56.39;100046.75;4957425;28;7194;-73
2023/01/02 01:55:45;;;;;;;;;;;;;;;16.86;56.71;100045.88;4954940;28;6803;-73
2023/01/02 01:58:18;;;;;;;;;;;;;;;16.83;57.14;100048.38;4986233;28;6803;-72
2023/01/02 02:00:44;;;;;;;;;;;;;;;16.76;56.83;100050.00;4976428;28;6858;-73
2023/01/02 02:03:20;;;;;;;;;;;;;;;16.78;57.27;100060.38;4972175;28;8664;-72
2023/01/02 02:05:47;;;;;;;;;;;;;;;16.76;56.85;100075.03;4956900;28;7051;-72
2023/01/02 02:08:32;;;;;;;;;;;;;;;16.70;57.67;100067.16;4974487;28;7037;-72
2023/01/02 02:10:59;;;;;;;;;;;;;;;16.70;57.25;100072.31;4957859;28;6851;-72
2023/01/02 02:13:26;;;;;;;;;;;;;;;16.69;57.48;100058.50;4966329;28;6992;-72
2023/01/02 02:16:11;;;;;;;;;;;;;;;16.63;57.59;100053.22;4956241;28;6913;-72
2023/01/02 02:19:34;;;;;;;;;;;;;;;16.59;58.09;100044.53;4956980;28;7011;-72
2023/01/02 02:22:24;;;;;;;;;;;;;;;16.52;57.98;100045.28;4957344;28;7988;-72
2023/01/02 02:25:47;;;;;;;;;;;;;;;16.49;58.06;100029.72;4986522;28;6889;-72
2023/01/02 02:28:53;;;;;;;;;;;;;;;16.44;58.30;100034.78;4982117;28;7184;-72
2023/01/02 02:31:57;;;;;;;;;;;;;;;16.43;58.19;100027.88;4957899;28;6832;-72
2023/01/02 02:34:58;;;;;;;;;;;;;;;16.38;58.68;100038.16;4956944;28;7007;-72
2023/01/02 02:37:45;;;;;;;;;;;;;;;16.34;58.79;100053.56;4957301;28;6824;-72
2023/01/02 02:40:53;;;;;;;;;;;;;;;16.31;59.26;100053.50;4974004;28;6958;-72
2023/01/02 02:44:00;;;;;;;;;;;;;;;16.31;59.07;100056.09;4990807;28;7152;-72
2023/01/02 02:47:14;;;;;;;;;;;;;;;16.34;58.87;100063.91;4955417;28;6812;-72
2023/01/02 02:49:57;;;;;;;;;;;;;;;16.33;59.05;100070.78;4962337;28;7189;-72
2023/01/02 02:52:37;;;;;;;;;;;;;;;16.33;59.02;100070.78;4961706;28;7055;-72
2023/01/02 02:55:21;;;;;;;;;;;;;;;16.33;59.32;100044.94;4974528;28;6803;-72
2023/01/02 02:57:50;;;;;;;;;;;;;;;16.33;59.01;100070.78;4958467;28;6880;-72
2023/01/02 03:00:19;;;;;;;;;;;;;;;16.32;59.09;100056.13;4957895;28;7179;-72
2023/01/02 03:02:45;;;;;;;;;;;;;;;16.31;59.33;100058.66;4960773;28;6784;-73
2023/01/02 03:05:53;;;;;;;;;;;;;;;16.31;59.08;100056.09;4954178;28;6788;-73
2023/01/02 03:09:08;;;;;;;;;;;;;;;16.28;59.23;100053.44;4958090;28;6829;-72
2023/01/02 03:12:24;;;;;;;;;;;;;;;16.18;59.73;100049.84;4947329;28;6824;-72
2023/01/02 03:16:02;;;;;;;;;;;;;;;16.16;59.70;100044.63;4959298;28;7258;-72
2023/01/02 03:18:39;;;;;;;;;;;;;;;16.15;60.04;100048.06;4902955;28;6858;-72
2023/01/02 03:21:19;;;;;;;;;;;;;;;16.11;60.41;100059.16;4959799;28;6982;-72
2023/01/02 03:23:47;;;;;;;;;;;;;;;16.13;59.78;100035.94;4966316;28;6871;-73
2023/01/02 03:26:27;;;;;;;;;;;;;;;16.13;59.99;100054.03;4965486;28;6788;-73
2023/01/02 03:29:01;;;;;;;;;;;;;;;16.12;59.99;100060.03;4951520;28;7361;-72
2023/01/02 03:31:35;;;;;;;;;;;;;;;16.11;59.80;100064.31;4972734;28;6978;-72
2023/01/02 03:34:13;;;;;;;;;;;;;;;16.09;60.02;100063.44;4957954;28;6815;-72
2023/01/02 03:36:44;;;;;;;;;;;;;;;16.09;60.12;100058.25;4984113;28;7099;-72
2023/01/02 03:39:19;;;;;;;;;;;;;;;16.08;60.03;100065.16;4963918;28;7174;-73
2023/01/02 03:42:02;;;;;;;;;;;;;;;16.08;59.86;100061.69;4958025;28;6812;-73
2023/01/02 03:44:45;;;;;;;;;;;;;;;16.06;59.70;100058.22;4958547;28;6923;-73
2023/01/02 03:47:54;;;;;;;;;;;;;;;16.04;60.28;100062.47;4956372;28;10743;-74
2023/01/02 03:50:31;;;;;;;;;;;;;;;15.99;60.40;100080.47;4953281;28;6950;-73
2023/01/02 03:52:57;;;;;;;;;;;;;;;15.98;60.33;100070.09;4986594;28;6800;-73
2023/01/02 03:55:28;;;;;;;;;;;;;;;15.99;60.40;100079.59;4961831;28;6816;-73
2023/01/02 03:58:09;;;;;;;;;;;;;;;15.98;60.48;100073.53;4964233;28;6828;-73
2023/01/02 04:00:56;;;;;;;;;;;;;;;15.99;60.47;100080.47;4956431;28;6827;-73
2023/01/02 04:03:39;;;;;;;;;;;;;;;15.99;60.01;100075.31;4967214;28;7355;-73
2023/01/02 04:06:13;;;;;;;;;;;;;;;16.00;60.37;100082.22;4958460;28;7309;-73
2023/01/02 04:09:14;;;;;;;;;;;;;;;16.00;60.41;100078.75;4959524;28;6872;-73
2023/01/02 04:11:49;;;;;;;;;;;;;;;15.98;60.48;100075.28;4956385;28;7059;-73
2023/01/02 04:14:45;;;;;;;;;;;;;;;15.99;60.35;100074.44;4957046;28;6988;-73
2023/01/02 04:17:16;;;;;;;;;;;;;;;15.99;60.39;100077.91;4959918;28;7872;-74
2023/01/02 04:20:12;;;;;;;;;;;;;;;15.95;61.10;100076.97;4963208;28;7791;-73
2023/01/02 04:23:19;;;;;;;;;;;;;;;15.99;60.50;100079.59;4978676;28;6819;-73
2023/01/02 04:26:14;;;;;;;;;;;;;;;16.09;60.39;100071.19;4960621;28;6900;-73
2023/01/02 04:28:40;;;;;;;;;;;;;;;16.17;59.72;100074.81;4958847;28;7114;-73
2023/01/02 04:31:19;;;;;;;;;;;;;;;16.24;59.92;100076.66;4978505;28;6975;-73
2023/01/02 04:33:53;;;;;;;;;;;;;;;16.32;59.95;100078.50;4943870;28;6812;-73
2023/01/02 04:36:20;;;;;;;;;;;;;;;16.34;59.59;100080.28;4942601;28;6816;-73
2023/01/02 04:38:45;;;;;;;;;;;;;;;16.37;59.26;100079.47;4947286;28;6884;-73
2023/01/02 04:41:25;;;;;;;;;;;;;;;16.36;59.75;100082.91;4929559;28;7426;-74
2023/01/02 04:43:55;;;;;;;;;;;;;;;16.34;58.70;100082.03;4955207;28;7080;-73
2023/01/02 04:46:24;;;;;;;;;;;;;;;16.33;59.26;100081.13;4943831;28;6820;-74
2023/01/02 04:48:49;;;;;;;;;;;;;;;16.31;59.10;100071.59;4941063;28;6803;-74
2023/01/02 04:51:15;;;;;;;;;;;;;;;16.30;59.28;100085.38;4938877;28;6836;-74
2023/01/02 04:53:41;;;;;;;;;;;;;;;16.30;59.03;100090.53;4943634;28;6772;-73
2023/01/02 04:56:07;;;;;;;;;;;;;;;16.28;59.16;100097.41;4972655;28;6788;-74
2023/01/02 04:58:32;;;;;;;;;;;;;;;16.28;59.07;100063.78;4965029;28;6899;-73
2023/01/02 05:00:58;;;;;;;;;;;;;;;16.27;58.89;100091.34;4970756;28;7953;-74
2023/01/02 05:03:24;;;;;;;;;;;;;;;16.31;58.95;100100.03;4973512;28;6792;-74
2023/01/02 05:05:50;;;;;;;;;;;;;;;16.32;59.33;100104.38;4983842;28;8300;-74
2023/01/02 05:08:15;;;;;;;;;;;;;;;16.31;58.87;100102.63;4955630;28;6992;-74
2023/01/02 05:10:41;;;;;;;;;;;;;;;16.30;59.00;100112.13;4961032;28;7384;-73
2023/01/02 05:13:06;;;;;;;;;;;;;;;16.28;58.67;100116.41;4943489;28;7447;-74
2023/01/02 05:15:32;;;;;;;;;;;;;;;16.31;58.90;100119.03;4973375;28;6965;-74
2023/01/02 05:17:58;;;;;;;;;;;;;;;16.30;58.94;100126.75;4957000;28;7227;-74
2023/01/02 05:20:23;;;;;;;;;;;;;;;16.24;59.20;100120.63;4962987;28;6776;-74
2023/01/02 05:25:35;;;;;;;;;;;;;;;16.19;58.79;100134.31;4961315;28;6800;-73
2023/01/02 05:28:02;;;;;;;;;;;;;;;16.15;59.50;100145.41;4960381;28;7126;-74
2023/01/02 05:30:28;;;;;;;;;;;;;;;16.13;59.37;100135.06;4943948;28;6990;-74
2023/01/02 05:32:54;;;;;;;;;;;;;;;16.12;59.37;100125.53;4961348;28;8792;-74
2023/01/02 05:35:20;;;;;;;;;;;;;;;16.09;59.77;100138.41;4936513;28;6784;-73
2023/01/02 05:37:46;;;;;;;;;;;;;;;16.08;59.33;100140.13;4969347;28;6849;-73
2023/01/02 05:40:12;;;;;;;;;;;;;;;16.09;59.56;100138.41;4968752;28;6868;-73
2023/01/02 05:42:37;;;;;;;;;;;;;;;16.05;59.67;100152.09;4965603;28;6776;-74
2023/01/02 05:45:04;;;;;;;;;;;;;;;16.00;59.94;100157.19;4968581;28;6907;-73
2023/01/02 05:47:29;;;;;;;;;;;;;;;16.00;59.98;100148.53;4970083;28;8473;-73
2023/01/02 05:49:55;;;;;;;;;;;;;;;15.98;60.07;100151.06;4954072;28;6951;-73
2023/01/02 05:52:20;;;;;;;;;;;;;;;15.96;59.74;100147.59;4926845;28;6768;-74
2023/01/02 05:54:46;;;;;;;;;;;;;;;15.94;60.25;100155.34;4919167;29;7139;-73
2023/01/02 05:57:12;;;;;;;;;;;;;;;15.93;60.44;100158.75;4936100;28;6761;-73
2023/01/02 05:59:37;;;;;;;;;;;;;;;15.90;60.02;100158.66;4920030;29;6781;-73
2023/01/02 06:02:03;;;;;;;;;;;;;;;15.90;60.15;100161.25;4936316;28;6772;-74
2023/01/02 06:04:29;;;;;;;;;;;;;;;15.86;60.73;100162.00;4959407;28;6848;-74
2023/01/02 06:06:54;;;;;;;;;;;;;;;15.86;60.27;100166.28;4943102;28;6861;-73
2023/01/02 06:09:20;;;;;;;;;;;;;;;15.85;60.47;100168.03;4938001;28;6780;-73
2023/01/02 06:11:45;;;;;;;;;;;;;;;15.85;60.65;100173.19;4953722;28;6776;-73
2023/01/02 06:14:11;;;;;;;;;;;;;;;15.84;60.39;100163.69;4938694;28;6825;-73
2023/01/02 06:16:38;;;;;;;;;;;;;;;15.83;60.71;100177.41;4953234;28;6967;-73
2023/01/02 06:19:05;;;;;;;;;;;;;;;15.80;60.63;100178.25;4954853;28;6788;-73
2023/01/02 06:21:32;;;;;;;;;;;;;;;15.76;60.72;100175.56;4955471;28;6792;-73
2023/01/02 06:23:58;;;;;;;;;;;;;;;15.78;60.48;100176.47;4955981;28;7285;-73
2023/01/02 06:26:26;;;;;;;;;;;;;;;15.74;61.45;100183.25;4938003;28;6906;-73
2023/01/02 06:28:55;;;;;;;;;;;;;;;15.74;61.10;100187.53;4926899;28;7164;-74
2023/01/02 06:31:26;;;;;;;;;;;;;;;15.73;61.19;100183.22;4955117;28;6887;-73
2023/01/02 06:33:56;;;;;;;;;;;;;;;15.73;61.10;100198.72;4940676;28;6800;-73
2023/01/02 06:36:23;;;;;;;;;;;;;;;15.72;61.35;100194.38;4944733;28;6821;-73
2023/01/02 06:38:49;;;;;;;;;;;;;;;15.72;60.95;100186.63;4941458;28;6828;-73
2023/01/02 06:41:16;;;;;;;;;;;;;;;15.72;61.22;100196.97;4956001;28;6788;-73
2023/01/02 06:43:49;;;;;;;;;;;;;;;15.73;60.89;100207.34;4951147;28;6800;-73
2023/01/02 06:46:18;;;;;;;;;;;;;;;15.72;61.53;100202.13;4938148;28;6903;-73
2023/01/02 06:48:44;;;;;;;;;;;;;;;15.71;61.38;100208.16;4943448;28;7025;-73
2023/01/02 06:51:15;;;;;;;;;;;;;;;15.72;61.37;100202.13;4945872;28;6985;-73
2023/01/02 06:53:42;;;;;;;;;;;;;;;15.73;61.15;100206.47;4967306;28;6808;-73
2023/01/02 06:56:09;;;;;;;;;;;;;;;15.71;61.44;100215.91;4991223;28;7240;-73
2023/01/02 06:58:36;;;;;;;;;;;;;;;15.68;61.04;100217.59;4965649;28;6866;-73
2023/01/02 07:01:13;;;;;;;;;;;;;;;15.66;61.66;100221.84;4980453;28;6804;-73
2023/01/02 07:03:39;;;;;;;;;;;;;;;15.64;61.42;100226.06;4956998;28;7239;-73
2023/01/02 07:06:12;;;;;;;;;;;;;;;15.64;61.39;100231.25;4981768;28;6960;-73
2023/01/02 07:08:38;;;;;;;;;;;;;;;15.64;61.54;100236.41;4965308;28;7016;-73
2023/01/02 07:11:29;;;;;;;;;;;;;;;15.61;61.22;100238.94;4962574;28;6796;-73
2023/01/02 07:13:55;;;;;;;;;;;;;;;15.62;61.96;100253.59;4956848;28;7498;-73
2023/01/02 07:16:23;;;;;;;;;;;;;;;15.62;61.25;100252.72;4978626;28;7395;-73
2023/01/02 07:18:52;;;;;;;;;;;;;;;15.63;61.84;100257.06;4966751;28;6839;-73
2023/01/02 07:21:18;;;;;;;;;;;;;;;15.62;61.22;100256.16;4992042;28;7214;-73
2023/01/02 07:23:44;;;;;;;;;;;;;;;15.62;61.59;100274.25;4994579;28;7101;-73
2023/01/02 07:26:10;;;;;;;;;;;;;;;15.63;61.41;100273.41;4962264;28;6792;-73
2023/01/02 07:28:37;;;;;;;;;;;;;;;15.61;61.56;100274.22;4958936;28;6768;-73
2023/01/02 07:31:10;;;;;;;;;;;;;;;15.60;61.14;100278.50;4963999;28;6827;-73
2023/01/02 07:33:37;;;;;;;;;;;;;;;15.60;61.94;100283.69;4961884;28;6808;-73
2023/01/02 07:36:07;;;;;;;;;;;;;;;15.58;61.14;100284.47;4962910;28;6864;-73
2023/01/02 07:38:33;;;;;;;;;;;;;;;15.60;61.29;100288.00;4964611;28;6804;-73
2023/01/02 07:40:59;;;;;;;;;;;;;;;15.56;61.77;100284.44;4963133;28;6793;-73
2023/01/02 07:43:26;;;;;;;;;;;;;;;15.55;61.61;100295.63;4981160;28;7049;-73
2023/01/02 07:45:51;;;;;;;;;;;;;;;15.57;61.74;100304.28;4987644;28;7267;-73
2023/01/02 07:48:18;;;;;;;;;;;;;;;15.57;61.61;100309.44;4962089;28;6768;-73
2023/01/02 07:50:43;;;;;;;;;;;;;;;15.57;61.95;100318.88;4994111;28;6788;-73
2023/01/02 07:53:09;;;;;;;;;;;;;;;15.56;61.48;100336.09;4946353;28;6768;-73
2023/01/02 07:55:35;;;;;;;;;;;;;;;15.57;61.94;100330.09;4955926;28;7157;-73
2023/01/02 07:58:00;;;;;;;;;;;;;;;15.53;61.60;100343.75;4943631;28;6764;-73
2023/01/02 08:00:26;;;;;;;;;;;;;;;15.51;62.25;100355.75;4941424;28;7090;-73
2023/01/02 08:02:53;;;;;;;;;;;;;;;15.49;62.31;100357.44;4944333;28;6780;-73
2023/01/02 08:05:20;;;;;;;;;;;;;;;15.46;61.54;100341.88;4946364;28;6866;-73
2023/01/02 08:07:46;;;;;;;;;;;;;;;15.41;61.73;100355.50;4959335;28;6949;-73
2023/01/02 08:10:12;;;;;;;;;;;;;;;15.40;61.76;100364.09;4967070;28;6869;-73
2023/01/02 08:12:38;;;;;;;;;;;;;;;15.40;61.95;100373.53;4966648;28;7115;-73
2023/01/02 08:15:05;;;;;;;;;;;;;;;15.39;62.04;100376.94;4972085;28;7116;-73
2023/01/02 08:17:32;;;;;;;;;;;;;;;15.36;61.89;100395.84;4966055;28;6943;-73
2023/01/02 08:19:57;;;;;;;;;;;;;;;15.38;62.21;100398.44;4976952;28;6821;-73
2023/01/02 08:22:23;;;;;;;;;;;;;;;15.36;61.48;100408.75;4948235;28;7296;-73
2023/01/02 08:24:49;;;;;;;;;;;;;;;15.36;62.09;100413.91;4953993;28;6955;-73
2023/01/02 08:27:15;;;;;;;;;;;;;;;15.36;62.25;100423.34;4942525;28;6978;-73
2023/01/02 08:29:41;;;;;;;;;;;;;;;15.34;61.83;100423.31;4974252;28;7151;-73
2023/01/02 08:32:06;;;;;;;;;;;;;;;15.35;61.44;100435.38;4943428;28;6988;-73
2023/01/02 08:34:34;;;;;;;;;;;;;;;15.33;62.02;100437.03;4947601;28;7186;-72
2023/01/02 08:36:59;;;;;;;;;;;;;;;15.35;62.22;100450.00;4980005;28;6791;-73
2023/01/02 08:39:25;;;;;;;;;;;;;;;15.33;62.30;100441.34;4977268;28;6999;-72
2023/01/02 08:41:51;;;;;;;;;;;;;;;15.33;61.55;100452.53;4963447;28;6827;-73
2023/01/02 08:44:16;;;;;;;;;;;;;;;15.32;61.72;100465.44;4963486;28;6949;-72
2023/01/02 08:46:42;;;;;;;;;;;;;;;15.32;62.01;100466.28;4963079;28;6963;-73
2023/01/02 08:49:08;;;;;;;;;;;;;;;15.29;61.80;100473.94;4976235;28;7008;-73
2023/01/02 08:51:33;;;;;;;;;;;;;;;15.25;61.93;100483.31;4959319;28;7007;-73
2023/01/02 08:53:59;;;;;;;;;;;;;;;15.25;61.12;100488.47;4964553;28;7019;-73
2023/01/02 08:56:31;;;;;;;;;;;;;;;15.27;61.68;100491.13;4943040;28;6784;-73
2023/01/02 08:59:00;;;;;;;;;;;;;;;15.28;61.49;100503.19;4931019;28;10138;-73
2023/01/02 09:01:29;;;;;;;;;;;;;;;15.31;61.18;100497.25;4946713;28;6800;-73
2023/01/02 09:03:55;;;;;;;;;;;;;;;15.33;61.15;100508.50;4947056;28;6964;-73
2023/01/02 09:06:24;;;;;;;;;;;;;;;15.34;60.78;100513.69;4931353;28;7059;-73
2023/01/02 09:08:52;;;;;;;;;;;;;;;15.34;60.81;100508.53;4931466;28;7078;-73
2023/01/02 09:11:29;;;;;;;;;;;;;;;15.33;60.36;100504.19;4928944;28;6936;-73
2023/01/02 09:13:57;;;;;;;;;;;;;;;15.31;60.34;100516.19;4955057;28;6820;-73
2023/01/02 09:16:24;;;;;;;;;;;;;;;15.28;60.35;100506.63;4925459;28;6967;-73
2023/01/02 09:18:50;;;;;;;;;;;;;;;15.27;59.96;100527.25;4932657;28;7373;-73
2023/01/02 09:21:17;;;;;;;;;;;;;;;15.23;60.08;100531.44;4958650;28;6941;-73
2023/01/02 09:23:42;;;;;;;;;;;;;;;15.19;60.35;100537.31;4941471;28;6792;-73
2023/01/02 09:26:11;;;;;;;;;;;;;;;15.17;59.68;100538.13;4921067;28;7173;-73
2023/01/02 09:28:37;;;;;;;;;;;;;;;15.14;60.29;100532.03;4909485;28;7268;-73
2023/01/02 09:31:12;;;;;;;;;;;;;;;15.14;59.80;100537.19;4944066;28;6836;-73
2023/01/02 09:33:42;;;;;;;;;;;;;;;15.14;59.90;100537.19;4929539;28;6979;-73
2023/01/02 09:36:10;;;;;;;;;;;;;;;15.14;60.25;100552.66;4941845;28;6997;-73
2023/01/02 09:38:36;;;;;;;;;;;;;;;15.13;59.86;100566.41;4959532;28;6983;-73
2023/01/02 09:41:20;;;;;;;;;;;;;;;15.13;60.32;100571.56;4931981;28;6780;-73
2023/01/02 09:44:13;;;;;;;;;;;;;;;15.12;60.54;100567.25;4953644;28;7353;-73
2023/01/02 09:47:06;;;;;;;;;;;;;;;15.14;60.42;100573.31;4942690;28;7176;-73
2023/01/02 09:49:46;;;;;;;;;;;;;;;15.17;61.06;100585.47;4948760;28;7253;-73
2023/01/02 09:52:32;;;;;;;;;;;;;;;15.21;60.28;100591.59;4961318;28;7019;-73
2023/01/02 09:54:59;;;;;;;;;;;;;;;15.22;60.26;100606.25;4972275;28;7070;-73
2023/01/02 09:57:27;;;;;;;;;;;;;;;15.22;59.99;100602.00;4964465;28;6851;-72
2023/01/02 10:00:11;;;;;;;;;;;;;;;15.23;60.66;100597.69;4955895;28;6819;-73
2023/01/02 10:03:10;;;;;;;;;;;;;;;15.26;60.56;100613.28;4989771;28;11529;-72
2023/01/02 10:06:05;;;;;;;;;;;;;;;15.30;60.75;100604.81;4958888;28;6807;-73
2023/01/02 10:08:49;;;;;;;;;;;;;;;15.39;60.26;100612.84;4980541;28;8634;-73
2023/01/02 10:11:39;;;;;;;;;;;;;;;15.46;61.12;100595.84;4960278;28;7277;-73
2023/01/02 10:14:56;;;;;;;;;;;;;;;15.53;60.96;100597.78;4960760;28;7238;-72
2023/01/02 10:17:27;;;;;;;;;;;;;;;15.57;60.54;100603.03;4956566;28;6800;-73
2023/01/02 10:20:24;;;;;;;;;;;;;;;15.60;60.30;100603.16;4986102;28;6820;-73
2023/01/02 10:22:59;;;;;;;;;;;;;;;15.59;60.42;100607.44;4964107;28;6980;-73
2023/01/02 10:25:41;;;;;;;;;;;;;;;15.61;59.95;100610.94;4971017;28;7401;-73
2023/01/02 10:28:47;;;;;;;;;;;;;;;15.60;60.53;100614.34;4972139;28;7003;-73
2023/01/02 10:31:35;;;;;;;;;;;;;;;15.62;59.75;100611.81;4958715;28;6852;-73
2023/01/02 10:34:03;;;;;;;;;;;;;;;15.64;59.68;100612.72;4958666;28;7171;-74
2023/01/02 10:36:40;;;;;;;;;;;;;;;15.66;60.16;100614.53;4962687;28;7058;-73
2023/01/02 10:39:18;;;;;;;;;;;;;;;15.69;60.08;100614.63;4988358;28;6935;-73
2023/01/02 10:41:53;;;;;;;;;;;;;;;15.72;59.94;100615.53;4976086;28;7015;-73
2023/01/02 10:44:31;;;;;;;;;;;;;;;15.77;60.17;100608.81;4963077;28;7142;-74
2023/01/02 10:47:09;;;;;;;;;;;;;;;15.79;60.08;100607.16;4964302;28;7060;-73
2023/01/02 10:49:36;;;;;;;;;;;;;;;15.82;59.92;100610.72;4961852;28;6985;-75
2023/01/02 10:52:12;;;;;;;;;;;;;;;15.86;59.75;100606.50;4958437;28;7682;-73
2023/01/02 10:54:56;;;;;;;;;;;;;;;15.88;59.48;100617.75;4981709;28;6800;-73
2023/01/02 10:57:43;;;;;;;;;;;;;;;15.88;59.67;100610.00;4987743;28;7057;-74
2023/01/02 11:00:17;;;;;;;;;;;;;;;15.89;59.36;100611.75;4962819;28;6816;-73
2023/01/02 11:02:53;;;;;;;;;;;;;;;15.90;59.51;100626.47;4958592;28;11235;-73
2023/01/02 11:05:27;;;;;;;;;;;;;;;15.92;59.28;100632.56;4960376;28;6800;-73
2023/01/02 11:07:54;;;;;;;;;;;;;;;15.94;59.49;100619.69;4989768;28;6808;-74
2023/01/02 11:10:28;;;;;;;;;;;;;;;15.96;59.35;100618.00;4960732;28;6793;-74
2023/01/02 11:12:54;;;;;;;;;;;;;;;15.96;59.00;100624.06;4981977;28;7019;-73
2023/01/02 11:15:29;;;;;;;;;;;;;;;15.93;58.78;100624.00;4993331;28;6963;-74
2023/01/02 11:17:57;;;;;;;;;;;;;;;15.91;59.18;100620.47;4962778;28;6995;-74
2023/01/02 11:20:34;;;;;;;;;;;;;;;15.91;59.18;100617.88;4946906;28;6983;-74
2023/01/02 11:23:03;;;;;;;;;;;;;;;15.92;59.11;100622.22;4981780;28;7209;-74
2023/01/02 11:25:39;;;;;;;;;;;;;;;15.95;58.92;100622.31;4974303;28;6800;-74
2023/01/02 11:28:12;;;;;;;;;;;;;;;15.99;59.28;100615.53;4989578;28;6856;-74
2023/01/02 11:30:46;;;;;;;;;;;;;;;16.00;59.01;100621.56;4979344;28;7041;-73
2023/01/02 11:33:26;;;;;;;;;;;;;;;16.08;58.89;100635.59;4951355;28;6976;-74
2023/01/02 11:36:05;;;;;;;;;;;;;;;16.15;58.74;100650.47;4965915;28;6868;-74
2023/01/02 11:38:44;;;;;;;;;;;;;;;16.22;58.53;100649.81;4958352;28;6852;-74
2023/01/02 11:45:10;;;;;;;;;;;;;;;16.26;58.40;100642.13;4974947;28;7109;-74
2023/01/02 11:47:48;;;;;;;;;;;;;;;16.27;58.34;100649.06;4965704;28;7048;-73
2023/01/02 11:50:27;;;;;;;;;;;;;;;16.28;58.36;100650.81;4956095;28;6807;-74
2023/01/02 11:53:00;;;;;;;;;;;;;;;16.28;58.35;100656.88;4960364;28;6803;-74
2023/01/02 11:55:51;;;;;;;;;;;;;;;16.27;58.13;100654.22;4977705;28;6800;-74
2023/01/02 11:58:50;;;;;;;;;;;;;;;16.24;57.95;100655.00;4962904;28;6983;-74
2023/01/02 12:01:43;;;;;;;;;;;;;;;16.23;58.23;100653.25;4964834;28;6840;-74
2023/01/02 12:04:11;;;;;;;;;;;;;;;16.25;58.29;100651.59;4958475;28;6820;-74
2023/01/02 12:07:04;;;;;;;;;;;;;;;16.33;57.99;100659.59;4974653;28;10375;-74
2023/01/02 12:10:18;;;;;;;;;;;;;;;16.37;57.79;100664.00;4959271;28;6812;-74
2023/01/02 12:13:19;;;;;;;;;;;;;;;16.36;57.69;100664.84;4955892;28;6812;-74
2023/01/02 12:16:05;;;;;;;;;;;;;;;16.33;57.06;100665.63;4963827;28;6871;-74
2023/01/02 12:19:00;;;;;;;;;;;;;;;16.26;56.95;100679.22;4961185;28;6804;-74
2023/01/02 12:21:51;;;;;;;;;;;;;;;16.18;56.79;100676.41;4946524;28;6859;-74
2023/01/02 12:24:53;;;;;;;;;;;;;;;16.09;56.59;100673.53;4964842;28;6796;-74
2023/01/02 12:27:53;;;;;;;;;;;;;;;16.01;56.87;100683.66;4957941;28;6954;-74
2023/01/02 12:30:20;;;;;;;;;;;;;;;15.96;56.77;100680.94;4959619;28;6835;-74
2023/01/02 12:33:44;;;;;;;;;;;;;;;15.93;56.72;100680.84;4990351;28;6788;-74
2023/01/02 12:36:37;;;;;;;;;;;;;;;15.89;56.92;100686.72;4974689;28;6808;-74
2023/01/02 12:39:21;;;;;;;;;;;;;;;15.82;56.76;100697.69;4960194;28;6816;-75
2023/01/02 12:42:14;;;;;;;;;;;;;;;15.76;56.45;100698.38;4955924;28;6824;-74
2023/01/02 12:44:54;;;;;;;;;;;;;;;15.73;56.48;100707.72;4960401;28;7039;-74
2023/01/02 12:47:38;;;;;;;;;;;;;;;15.71;56.50;100699.06;4964520;28;6796;-74
2023/01/02 12:50:55;;;;;;;;;;;;;;;15.66;57.10;100702.38;4965633;28;7216;-74
2023/01/02 12:53:52;;;;;;;;;;;;;;;15.62;56.40;100704.81;4955022;28;7038;-75
2023/01/02 12:57:08;;;;;;;;;;;;;;;15.56;56.74;100710.66;4963797;28;7432;-74
2023/01/02 13:00:01;;;;;;;;;;;;;;;15.46;56.89;100713.78;4960784;28;6824;-75
2023/01/02 13:03:01;;;;;;;;;;;;;;;15.38;57.07;100719.56;4961240;28;7017;-74
2023/01/02 13:05:58;;;;;;;;;;;;;;;15.25;56.91;100723.44;4963261;28;7222;-74
2023/01/02 13:08:38;;;;;;;;;;;;;;;15.17;57.09;100727.44;4957917;28;7036;-75
2023/01/02 13:11:08;;;;;;;;;;;;;;;15.13;58.06;100725.59;4960924;28;6965;-74
2023/01/02 13:13:36;;;;;;;;;;;;;;;15.08;57.77;100722.88;4965165;28;7259;-74
2023/01/02 13:16:11;;;;;;;;;;;;;;;15.05;57.80;100715.00;4973196;28;6986;-74
2023/01/02 13:18:58;;;;;;;;;;;;;;;15.04;57.55;100715.81;4970298;28;6880;-74
2023/01/02 13:21:53;;;;;;;;;;;;;;;15.01;58.01;100723.47;4964134;28;7211;-74
2023/01/02 13:24:24;;;;;;;;;;;;;;;14.98;58.57;100710.47;4961765;28;7183;-74
2023/01/02 13:26:55;;;;;;;;;;;;;;;14.97;58.10;100721.63;4958775;28;6812;-74
2023/01/02 13:29:40;;;;;;;;;;;;;;;14.96;58.89;100719.84;4961148;28;7021;-74
2023/01/02 13:32:12;;;;;;;;;;;;;;;14.94;58.50;100718.91;4986691;28;6986;-73
2023/01/02 13:34:52;;;;;;;;;;;;;;;14.93;58.89;100723.22;4955847;28;7019;-74